Gig Harbor, WA (98335)

5:21 PM PST on February 27, 2017 (GMT -0800)
Gig Harbor | | Change Station

Elev 0 ft 47.30 °N, 122.60 °W | Updated 2 minutes ago

Mostly Cloudy
Mostly Cloudy
41.7 °F
Feels Like 42 °F
N
0.6
Wind Variable Wind from SSW
Gusts 2.5 mph

Today
High -- | Low -- °F
--% Chance of Precip.
Yesterday
High -- | Low -- °F
Precip. -- in
Pressure 29.70 in
Visibility 10.0 miles
Clouds Scattered Clouds 700 ft
Mostly Cloudy 1000 ft
Mostly Cloudy 6000 ft
Windchill 42 °F
Dew Point 37 °F
Humidity 83%
Rainfall 0.08 in
Snow Depth Not available.
6:53 AM 5:53 PM
Waxing Crescent, 3% visible
SPECI KTIW 280116Z 19007KT 10SM SCT007 BKN010 BKN060 04/02 A2970 RMK AO2 T00390017
Pressure 29.70 in
Visibility 10.0 miles
Clouds Scattered Clouds 700 ft
Mostly Cloudy 1000 ft
Mostly Cloudy 6000 ft
Windchill 42 °F
Dew Point 37 °F
Humidity 83%
Rainfall 0.08 in
Snow Depth Not available.
6:53 AM 5:53 PM
Waxing Crescent, 3% visible
SPECI KTIW 280116Z 19007KT 10SM SCT007 BKN010 BKN060 04/02 A2970 RMK AO2 T00390017

Get Your Daily Forecast Email!

Thanks for signing up!

Be on the lookout for a verification email in your inbox.

You'll start receiving the daily forecast at 8 AM.

×

10-Day Weather Forecast

Almanac

Astronomy

Feb. 27, 2017 Rise Set
Actual Time
Civil Twilight
Nautical Twilight
Astronomical Twilight
Moon
Length of Visible Light
Length of Day
Tomorrow will be .
, % of the Moon is Illuminated

Today's Extremes

State Highs State Lows

Community

WunderPhotos

Upload Photos

1,962,540 photos uploaded!

WunderBlog® & News

Nearby

Air Quality

  Air Quality AQ Index Pollutant
Not available.

Snow Depth

Station Depth Elevation

Earthquake Activity

City Distance Mag. Time & Date
Minimum magnitude displayed is 2.5.

Coastal Water Temperatures

Place Temperature

Stations

Nearby Weather Stations

Station Location Temp. Windchill Dew Point Humidity Wind Precip. Elev Updated Type
                   

Watches & Warnings

There are currently no watches in effect.